createdAt,value
2022-12-25T00:00:06.234Z,9.20
2022-12-25T00:02:34.577Z,9.20
2022-12-25T00:05:03.544Z,9.20
2022-12-25T00:07:31.905Z,9.10
2022-12-25T00:10:00.161Z,9.10
2022-12-25T00:12:28.474Z,9.10
2022-12-25T00:14:58.024Z,9.10
2022-12-25T00:17:26.259Z,9.10
2022-12-25T00:19:54.510Z,9.00
2022-12-25T00:22:22.840Z,9.00
2022-12-25T00:24:51.171Z,8.90
2022-12-25T00:27:19.505Z,8.90
2022-12-25T00:29:47.729Z,8.80
2022-12-25T00:32:17.386Z,8.80
2022-12-25T00:34:45.686Z,8.80
2022-12-25T00:37:13.910Z,8.80
2022-12-25T00:39:42.161Z,8.80
2022-12-25T00:42:20.187Z,8.80
2022-12-25T00:44:49.009Z,8.80
2022-12-25T00:47:19.255Z,8.70
2022-12-25T00:49:47.601Z,8.60
2022-12-25T00:52:16.312Z,8.60
2022-12-25T00:54:44.583Z,8.60
2022-12-25T00:57:12.814Z,8.60
2022-12-25T00:59:41.037Z,8.60
2022-12-25T01:02:24.518Z,8.70
2022-12-25T01:04:55.744Z,8.70
2022-12-25T01:07:25.806Z,8.70
2022-12-25T01:10:11.285Z,8.80
2022-12-25T01:12:41.728Z,8.80
2022-12-25T01:15:11.848Z,8.80
2022-12-25T01:17:40.189Z,8.80
2022-12-25T01:20:11.955Z,8.80
2022-12-25T01:22:40.330Z,8.70
2022-12-25T01:25:10.793Z,8.80
2022-12-25T01:27:39.644Z,8.80
2022-12-25T01:30:09.596Z,8.90
2022-12-25T01:32:37.851Z,8.90
2022-12-25T01:35:06.805Z,8.80
2022-12-25T01:37:36.383Z,8.90
2022-12-25T01:40:05.076Z,9.00
2022-12-25T01:42:33.259Z,9.10
2022-12-25T01:45:33.861Z,9.10
2022-12-25T01:48:05.384Z,9.10
2022-12-25T01:50:35.297Z,9.10
2022-12-25T01:53:06.250Z,9.20
2022-12-25T01:55:35.369Z,9.20
2022-12-25T01:58:04.075Z,9.20
2022-12-25T02:00:32.331Z,9.30
2022-12-25T02:03:00.648Z,9.20
2022-12-25T02:05:30.489Z,9.20
2022-12-25T02:08:03.000Z,9.30
2022-12-25T02:10:32.578Z,9.30
2022-12-25T02:13:01.740Z,9.30
2022-12-25T02:15:41.039Z,9.40
2022-12-25T02:18:14.752Z,9.50
2022-12-25T02:20:51.781Z,9.50
2022-12-25T02:23:47.808Z,9.50
2022-12-25T02:26:26.464Z,9.50
2022-12-25T02:29:01.993Z,9.50
2022-12-25T02:31:36.249Z,9.50
2022-12-25T02:34:14.372Z,9.60
2022-12-25T02:36:47.026Z,9.60
2022-12-25T02:39:40.030Z,9.70
2022-12-25T02:42:13.544Z,9.80
2022-12-25T02:45:19.109Z,9.80
2022-12-25T02:48:19.575Z,9.80
2022-12-25T02:51:06.086Z,9.80
2022-12-25T02:53:53.622Z,9.80
2022-12-25T02:56:41.178Z,9.70
2022-12-25T02:59:27.266Z,9.70
2022-12-25T03:02:15.301Z,9.70
2022-12-25T03:05:02.754Z,9.70
2022-12-25T03:07:32.866Z,9.70
2022-12-25T03:10:23.756Z,9.80
2022-12-25T03:12:55.017Z,9.90
2022-12-25T03:15:41.222Z,9.90
2022-12-25T03:18:15.162Z,10.00
2022-12-25T03:21:01.141Z,10.00
2022-12-25T03:23:50.445Z,10.10
2022-12-25T03:26:36.384Z,10.20
2022-12-25T03:29:04.812Z,10.20
2022-12-25T03:31:40.534Z,10.20
2022-12-25T03:34:42.046Z,10.30
2022-12-25T03:37:42.068Z,10.30
2022-12-25T03:40:36.030Z,10.30
2022-12-25T03:43:40.225Z,10.30
2022-12-25T03:46:33.758Z,10.30
2022-12-25T03:49:24.940Z,10.30
2022-12-25T03:52:15.526Z,10.40
2022-12-25T03:55:04.617Z,10.40
2022-12-25T03:57:52.893Z,10.30
2022-12-25T04:00:38.669Z,10.30
2022-12-25T04:03:24.297Z,10.30
2022-12-25T04:06:09.780Z,10.30
2022-12-25T04:08:57.023Z,10.30
2022-12-25T04:11:42.536Z,10.30
2022-12-25T04:14:36.502Z,10.30
2022-12-25T04:17:22.148Z,10.30
2022-12-25T04:20:07.709Z,10.40
2022-12-25T04:22:53.127Z,10.30
2022-12-25T04:25:36.675Z,10.30
2022-12-25T04:28:23.380Z,10.20
2022-12-25T04:31:09.030Z,10.20
2022-12-25T04:33:54.846Z,10.10
2022-12-25T04:36:23.311Z,10.00
2022-12-25T04:38:51.493Z,10.00
2022-12-25T04:41:21.103Z,10.00
2022-12-25T04:43:49.313Z,9.90
2022-12-25T04:46:17.500Z,9.90
2022-12-25T04:48:45.816Z,9.90
2022-12-25T04:51:16.298Z,9.80
2022-12-25T04:53:45.723Z,9.80
2022-12-25T04:56:15.248Z,9.80
2022-12-25T04:58:45.514Z,9.70
2022-12-25T05:01:14.516Z,9.70
2022-12-25T05:03:42.939Z,9.60
2022-12-25T05:06:11.592Z,9.50
2022-12-25T05:08:40.125Z,9.50
2022-12-25T05:11:09.730Z,9.40
2022-12-25T05:13:37.963Z,9.40
2022-12-25T05:16:08.743Z,9.40
2022-12-25T05:18:37.231Z,9.30
2022-12-25T05:21:05.736Z,9.30
2022-12-25T05:23:33.975Z,9.30
2022-12-25T05:26:05.307Z,9.30
2022-12-25T05:28:34.795Z,9.30
2022-12-25T05:31:03.386Z,9.30
2022-12-25T05:33:33.124Z,9.40
2022-12-25T05:36:03.706Z,9.40
2022-12-25T05:38:31.964Z,9.40
2022-12-25T05:41:00.154Z,9.50
2022-12-25T05:43:29.176Z,9.50
2022-12-25T05:45:57.652Z,9.60
2022-12-25T05:48:25.931Z,9.60
2022-12-25T05:50:55.482Z,9.60
2022-12-25T05:53:23.703Z,9.60
2022-12-25T05:55:51.902Z,9.70
2022-12-25T05:58:20.098Z,9.70
2022-12-25T06:00:48.283Z,9.80
2022-12-25T06:03:16.612Z,9.80
2022-12-25T06:05:44.837Z,9.80
2022-12-25T06:08:14.357Z,9.80
2022-12-25T06:10:42.618Z,9.80
2022-12-25T06:13:10.804Z,9.80
2022-12-25T06:15:40.359Z,9.80
2022-12-25T06:18:09.191Z,9.90
2022-12-25T06:20:37.725Z,9.90
2022-12-25T06:23:06.115Z,9.90
2022-12-25T06:25:35.778Z,10.00
2022-12-25T06:28:04.150Z,9.90
2022-12-25T06:30:32.416Z,9.80
2022-12-25T06:33:01.039Z,9.90
2022-12-25T06:35:29.490Z,9.90
2022-12-25T06:37:57.946Z,10.00
2022-12-25T06:40:26.171Z,9.90
2022-12-25T06:42:55.707Z,10.00
2022-12-25T06:45:23.917Z,10.00
2022-12-25T06:47:52.192Z,10.00
2022-12-25T06:50:20.342Z,10.00
2022-12-25T06:52:48.553Z,10.00
2022-12-25T06:55:16.853Z,10.00
2022-12-25T06:57:45.062Z,10.00
2022-12-25T07:00:15.823Z,10.10
2022-12-25T07:02:49.399Z,10.10
2022-12-25T07:05:17.974Z,10.10
2022-12-25T07:07:46.146Z,10.10
2022-12-25T07:10:14.396Z,10.10
2022-12-25T07:12:42.609Z,10.20
2022-12-25T07:15:11.590Z,10.20
2022-12-25T07:17:41.226Z,10.10
2022-12-25T07:20:10.925Z,10.10
2022-12-25T07:22:39.095Z,10.10
2022-12-25T07:25:08.192Z,10.10
2022-12-25T07:27:36.388Z,10.10
2022-12-25T07:30:05.236Z,10.10
2022-12-25T07:32:33.710Z,10.10
2022-12-25T07:35:03.356Z,10.20
2022-12-25T07:37:31.578Z,10.20
2022-12-25T07:39:59.769Z,10.20
2022-12-25T07:42:27.965Z,10.20
2022-12-25T07:44:56.166Z,10.20
2022-12-25T07:47:24.399Z,10.20
2022-12-25T07:49:52.600Z,10.20
2022-12-25T07:52:22.156Z,10.20
2022-12-25T07:54:50.405Z,10.30
2022-12-25T07:57:18.588Z,10.30
2022-12-25T07:59:46.792Z,10.30
2022-12-25T08:02:15.250Z,10.40
2022-12-25T08:04:43.684Z,10.40
2022-12-25T08:07:11.888Z,10.50
2022-12-25T08:09:41.509Z,10.50
2022-12-25T08:12:09.728Z,10.60
2022-12-25T08:14:37.908Z,10.60
2022-12-25T08:17:06.222Z,10.60
2022-12-25T08:19:34.470Z,10.60
2022-12-25T08:22:02.667Z,10.60
2022-12-25T08:24:30.894Z,10.50
2022-12-25T08:27:00.508Z,10.50
2022-12-25T08:29:29.393Z,10.40
2022-12-25T08:31:58.509Z,10.40
2022-12-25T08:34:26.843Z,10.40
2022-12-25T08:36:55.301Z,10.40
2022-12-25T08:39:24.293Z,10.50
2022-12-25T08:41:52.502Z,10.40
2022-12-25T08:44:22.168Z,10.40
2022-12-25T08:46:50.391Z,10.30
2022-12-25T08:49:19.347Z,10.20
2022-12-25T08:51:47.738Z,10.30
2022-12-25T08:54:16.158Z,10.40
2022-12-25T08:56:44.382Z,10.40
2022-12-25T08:59:12.621Z,10.50
2022-12-25T09:01:42.289Z,10.60
2022-12-25T09:04:10.591Z,10.60
2022-12-25T09:06:39.474Z,10.60
2022-12-25T09:09:07.754Z,10.70
2022-12-25T09:11:35.969Z,10.70
2022-12-25T09:14:04.184Z,10.70
2022-12-25T09:16:32.940Z,10.80
2022-12-25T09:19:02.598Z,10.80
2022-12-25T09:21:30.806Z,10.80
2022-12-25T09:23:59.022Z,10.90
2022-12-25T09:26:27.237Z,10.80
2022-12-25T09:28:55.501Z,10.90
2022-12-25T09:31:24.543Z,10.90
2022-12-25T09:33:56.885Z,10.90
2022-12-25T09:36:26.908Z,11.00
2022-12-25T09:38:55.121Z,10.90
2022-12-25T09:41:30.709Z,10.90
2022-12-25T09:44:03.128Z,10.90
2022-12-25T09:46:39.347Z,10.90
2022-12-25T09:49:14.442Z,10.90
2022-12-25T09:51:45.251Z,10.90
2022-12-25T09:54:19.423Z,10.90
2022-12-25T09:56:47.774Z,11.00
2022-12-25T09:59:24.033Z,10.90
2022-12-25T10:02:05.206Z,10.90
2022-12-25T10:04:48.663Z,10.90
2022-12-25T10:07:31.753Z,10.80
2022-12-25T10:10:14.130Z,10.80
2022-12-25T10:12:54.517Z,10.80
2022-12-25T10:15:32.951Z,10.90
2022-12-25T10:18:30.737Z,10.90
2022-12-25T10:21:01.571Z,10.90
2022-12-25T10:23:35.422Z,11.00
2022-12-25T10:26:04.301Z,11.00
2022-12-25T10:28:40.324Z,11.00
2022-12-25T10:31:19.952Z,11.00
2022-12-25T10:33:48.969Z,11.00
2022-12-25T10:36:20.074Z,11.10
2022-12-25T10:38:50.129Z,11.10
2022-12-25T10:41:30.036Z,11.20
2022-12-25T10:43:58.924Z,11.10
2022-12-25T10:46:30.072Z,11.10
2022-12-25T10:49:01.173Z,11.10
2022-12-25T10:51:32.151Z,11.20
2022-12-25T10:54:04.103Z,11.20
2022-12-25T10:56:32.366Z,11.10
2022-12-25T10:59:07.476Z,11.20
2022-12-25T11:01:35.898Z,11.30
2022-12-25T11:04:04.317Z,11.30
2022-12-25T11:06:34.515Z,11.40
2022-12-25T11:09:04.661Z,11.40
2022-12-25T11:11:33.003Z,11.40
2022-12-25T11:14:03.006Z,11.50
2022-12-25T11:16:33.364Z,11.50
2022-12-25T11:19:01.989Z,11.60
2022-12-25T11:21:31.942Z,11.60
2022-12-25T11:24:02.613Z,11.70
2022-12-25T11:26:37.529Z,11.80
2022-12-25T11:29:17.050Z,11.80
2022-12-25T11:31:46.117Z,11.80
2022-12-25T11:34:25.671Z,11.80
2022-12-25T11:36:54.363Z,11.90
2022-12-25T11:39:28.268Z,11.80
2022-12-25T11:42:02.423Z,11.90
2022-12-25T11:44:41.432Z,11.90
2022-12-25T11:47:18.126Z,11.90
2022-12-25T11:49:57.394Z,11.90
2022-12-25T11:52:33.203Z,11.80
2022-12-25T11:55:06.432Z,11.90
2022-12-25T11:57:38.827Z,12.00
2022-12-25T12:00:10.263Z,12.00
2022-12-25T12:02:46.043Z,12.00
2022-12-25T12:05:22.250Z,12.10
2022-12-25T12:07:58.331Z,12.10
2022-12-25T12:10:36.073Z,12.10
2022-12-25T12:13:22.121Z,12.20
2022-12-25T12:15:51.398Z,12.20
2022-12-25T12:18:22.675Z,12.20
2022-12-25T12:21:02.753Z,12.30
2022-12-25T12:23:32.924Z,12.30
2022-12-25T12:26:01.793Z,12.30
2022-12-25T12:28:45.893Z,12.30
2022-12-25T12:31:14.743Z,12.30
2022-12-25T12:33:45.019Z,12.30
2022-12-25T12:36:15.368Z,12.20
2022-12-25T12:38:45.138Z,12.20
2022-12-25T12:41:14.952Z,12.20
2022-12-25T12:43:48.176Z,12.20
2022-12-25T12:46:21.641Z,12.30
2022-12-25T12:48:56.152Z,12.20
2022-12-25T12:51:32.647Z,12.40
2022-12-25T12:54:21.271Z,12.40
2022-12-25T12:57:00.504Z,12.50
2022-12-25T12:59:39.932Z,12.50
2022-12-25T13:02:32.463Z,12.50
2022-12-25T13:05:04.727Z,12.60
2022-12-25T13:07:44.955Z,12.60
2022-12-25T13:10:26.217Z,12.70
2022-12-25T13:13:01.196Z,12.70
2022-12-25T13:15:34.126Z,12.60
2022-12-25T13:18:06.923Z,12.60
2022-12-25T13:20:44.399Z,12.60
2022-12-25T13:23:24.381Z,12.60
2022-12-25T13:25:56.334Z,12.60
2022-12-25T13:28:29.832Z,12.60
2022-12-25T13:31:15.336Z,12.60
2022-12-25T13:33:48.192Z,12.70
2022-12-25T13:36:16.592Z,12.70
2022-12-25T13:38:46.190Z,12.70
2022-12-25T13:41:36.943Z,12.60
2022-12-25T13:44:15.157Z,12.60
2022-12-25T13:46:44.760Z,12.70
2022-12-25T13:49:16.959Z,12.80
2022-12-25T13:51:45.836Z,12.80
2022-12-25T13:54:15.650Z,12.80
2022-12-25T13:56:52.012Z,12.70
2022-12-25T13:59:22.061Z,12.60
2022-12-25T14:01:54.006Z,12.60
2022-12-25T14:04:24.091Z,12.50
2022-12-25T14:06:53.297Z,12.70
2022-12-25T14:09:21.613Z,12.70
2022-12-25T14:11:53.357Z,12.70
2022-12-25T14:14:25.214Z,12.80
2022-12-25T14:16:59.542Z,12.80
2022-12-25T14:19:30.191Z,12.80
2022-12-25T14:22:01.961Z,12.70
2022-12-25T14:24:32.409Z,12.70
2022-12-25T14:27:02.844Z,12.60
2022-12-25T14:29:37.538Z,12.50
2022-12-25T14:32:11.911Z,12.50
2022-12-25T14:34:40.209Z,12.50
2022-12-25T14:37:14.396Z,12.50
2022-12-25T14:39:45.087Z,12.40
2022-12-25T14:42:19.732Z,12.40
2022-12-25T14:45:02.021Z,12.50
2022-12-25T14:47:33.198Z,12.50
2022-12-25T14:50:01.401Z,12.60
2022-12-25T14:52:32.868Z,12.40
2022-12-25T14:55:02.747Z,12.40
2022-12-25T14:57:34.712Z,12.40
2022-12-25T15:00:08.017Z,12.30
2022-12-25T15:02:48.269Z,12.20
2022-12-25T15:05:34.785Z,12.20
2022-12-25T15:08:18.882Z,12.20
2022-12-25T15:10:59.791Z,12.20
2022-12-25T15:13:30.448Z,12.20
2022-12-25T15:16:02.017Z,12.30
2022-12-25T15:18:37.904Z,12.20
2022-12-25T15:21:07.006Z,12.30
2022-12-25T15:23:35.353Z,12.30
2022-12-25T15:26:03.552Z,12.40
2022-12-25T15:28:31.770Z,12.40
2022-12-25T15:31:00.030Z,12.30
2022-12-25T15:33:28.286Z,12.30
2022-12-25T15:35:57.845Z,12.20
2022-12-25T15:38:26.089Z,12.20
2022-12-25T15:40:54.319Z,12.20
2022-12-25T15:43:40.514Z,12.30
2022-12-25T15:46:10.554Z,12.30
2022-12-25T15:48:38.782Z,12.30
2022-12-25T15:51:08.440Z,12.40
2022-12-25T15:53:36.660Z,12.40
2022-12-25T15:56:05.081Z,12.30
2022-12-25T15:58:33.280Z,12.30
2022-12-25T16:01:01.456Z,12.30
2022-12-25T16:03:29.835Z,12.30
2022-12-25T16:05:58.090Z,12.40
2022-12-25T16:08:27.665Z,12.40
2022-12-25T16:10:55.856Z,12.40
2022-12-25T16:13:24.092Z,12.40
2022-12-25T16:15:52.352Z,12.40
2022-12-25T16:18:21.272Z,12.30
2022-12-25T16:20:49.563Z,12.30
2022-12-25T16:23:17.837Z,12.40
2022-12-25T16:25:47.447Z,12.40
2022-12-25T16:28:15.750Z,12.40
2022-12-25T16:30:43.989Z,12.40
2022-12-25T16:33:12.856Z,12.40
2022-12-25T16:35:41.052Z,12.40
2022-12-25T16:38:09.249Z,12.30
2022-12-25T16:40:37.475Z,12.30
2022-12-25T16:43:07.117Z,12.30
2022-12-25T16:45:39.350Z,12.20
2022-12-25T16:48:08.598Z,12.20
2022-12-25T16:50:39.602Z,12.10
2022-12-25T16:53:08.109Z,12.10
2022-12-25T16:55:36.787Z,12.10
2022-12-25T16:58:07.279Z,12.00
2022-12-25T17:00:35.577Z,12.00
2022-12-25T17:03:03.955Z,12.10
2022-12-25T17:05:34.589Z,12.00
2022-12-25T17:08:02.791Z,12.00
2022-12-25T17:10:30.954Z,12.10
2022-12-25T17:12:59.209Z,12.00
2022-12-25T17:15:29.137Z,12.00
2022-12-25T17:17:57.380Z,12.00
2022-12-25T17:20:25.568Z,12.00
2022-12-25T17:22:53.805Z,12.00
2022-12-25T17:25:22.044Z,12.00
2022-12-25T17:27:50.758Z,11.90
2022-12-25T17:30:18.988Z,12.00
2022-12-25T17:32:48.642Z,12.10
2022-12-25T17:35:17.812Z,12.10
2022-12-25T17:37:46.042Z,12.10
2022-12-25T17:40:15.400Z,12.10
2022-12-25T17:42:43.684Z,12.10
2022-12-25T17:45:12.657Z,12.10
2022-12-25T17:47:40.924Z,12.10
2022-12-25T17:50:11.691Z,12.10
2022-12-25T17:52:39.901Z,12.10
2022-12-25T17:55:09.012Z,12.10
2022-12-25T17:57:37.240Z,12.20
2022-12-25T18:00:07.122Z,12.20
2022-12-25T18:02:35.579Z,12.20
2022-12-25T18:05:03.897Z,12.20
2022-12-25T18:07:33.858Z,12.20
2022-12-25T18:10:02.072Z,12.20
2022-12-25T18:12:30.341Z,12.20
2022-12-25T18:14:58.583Z,12.20
2022-12-25T18:17:27.060Z,12.20
2022-12-25T18:19:55.541Z,12.20
2022-12-25T18:22:23.861Z,12.20
2022-12-25T18:24:53.647Z,12.20
2022-12-25T18:27:21.872Z,12.10
2022-12-25T18:29:50.050Z,12.20
2022-12-25T18:32:21.162Z,12.20
2022-12-25T18:34:54.555Z,12.20
2022-12-25T18:37:23.864Z,12.20
2022-12-25T18:39:53.422Z,12.30
2022-12-25T18:42:39.841Z,12.20
2022-12-25T18:45:10.869Z,12.20
2022-12-25T18:47:39.279Z,12.20
2022-12-25T18:50:09.395Z,12.10
2022-12-25T18:52:48.983Z,12.10
2022-12-25T18:55:20.939Z,12.00
2022-12-25T18:57:49.470Z,12.00
2022-12-25T19:00:18.288Z,11.90
2022-12-25T19:02:46.850Z,11.70
2022-12-25T19:05:15.530Z,11.70
2022-12-25T19:07:43.896Z,11.70
2022-12-25T19:10:12.304Z,11.70
2022-12-25T19:12:41.875Z,11.70
2022-12-25T19:15:10.864Z,11.80
2022-12-25T19:17:39.113Z,11.80
2022-12-25T19:20:08.331Z,11.90
2022-12-25T19:22:36.544Z,11.90
2022-12-25T19:25:05.403Z,12.00
2022-12-25T19:27:33.574Z,12.00
2022-12-25T19:30:03.129Z,12.00
2022-12-25T19:32:31.581Z,12.00
2022-12-25T19:35:04.463Z,12.10
2022-12-25T19:37:33.121Z,12.00
2022-12-25T19:40:01.386Z,12.10
2022-12-25T19:42:29.614Z,12.10
2022-12-25T19:44:57.826Z,12.10
2022-12-25T19:47:27.427Z,12.10
2022-12-25T19:50:00.856Z,12.10
2022-12-25T19:52:30.751Z,12.10
2022-12-25T19:54:59.131Z,12.10
2022-12-25T19:57:27.334Z,12.10
2022-12-25T19:59:55.530Z,12.00
2022-12-25T20:02:23.784Z,12.00
2022-12-25T20:04:53.388Z,12.00
2022-12-25T20:07:21.600Z,12.10
2022-12-25T20:09:49.763Z,12.10
2022-12-25T20:12:18.138Z,12.10
2022-12-25T20:14:46.637Z,12.10
2022-12-25T20:17:16.122Z,12.10
2022-12-25T20:19:44.591Z,12.20
2022-12-25T20:22:14.176Z,12.20
2022-12-25T20:24:42.371Z,12.20
2022-12-25T20:27:10.563Z,12.20
2022-12-25T20:29:38.859Z,12.20
2022-12-25T20:32:07.173Z,12.20
2022-12-25T20:34:35.483Z,12.20
2022-12-25T20:37:03.753Z,12.30
2022-12-25T20:39:33.304Z,12.20
2022-12-25T20:42:01.542Z,12.20
2022-12-25T20:44:29.727Z,12.10
2022-12-25T20:47:00.956Z,12.10
2022-12-25T20:49:32.522Z,12.10
2022-12-25T20:52:05.325Z,12.10
2022-12-25T20:54:35.600Z,12.00
2022-12-25T20:57:03.884Z,12.00
2022-12-25T20:59:37.188Z,12.10
2022-12-25T21:02:06.392Z,12.10
2022-12-25T21:04:34.754Z,12.10
2022-12-25T21:07:02.954Z,12.00
2022-12-25T21:09:31.255Z,12.00
2022-12-25T21:12:00.861Z,12.10
2022-12-25T21:14:29.650Z,12.00
2022-12-25T21:16:57.941Z,12.00
2022-12-25T21:19:26.129Z,12.10
2022-12-25T21:21:54.679Z,12.10
2022-12-25T21:24:22.904Z,12.20
2022-12-25T21:26:51.113Z,12.10
2022-12-25T21:29:22.936Z,12.20
2022-12-25T21:32:09.241Z,12.20
2022-12-25T21:34:37.708Z,12.20
2022-12-25T21:37:05.885Z,12.20
2022-12-25T21:39:34.117Z,12.30
2022-12-25T21:42:04.382Z,12.20
2022-12-25T21:44:33.999Z,12.20
2022-12-25T21:47:02.192Z,12.20
2022-12-25T21:49:47.975Z,12.20
2022-12-25T21:52:16.277Z,12.20
2022-12-25T21:54:44.656Z,12.20
2022-12-25T21:57:12.904Z,12.20
2022-12-25T21:59:42.598Z,12.20
2022-12-25T22:02:12.335Z,12.10
2022-12-25T22:04:40.691Z,12.00
2022-12-25T22:07:18.230Z,11.90
2022-12-25T22:09:47.768Z,11.80
2022-12-25T22:12:34.924Z,11.70
2022-12-25T22:15:06.663Z,11.70
2022-12-25T22:17:54.555Z,11.70
2022-12-25T22:20:25.114Z,11.70
2022-12-25T22:22:54.150Z,11.60
2022-12-25T22:25:22.840Z,11.70
2022-12-25T22:27:51.717Z,11.70
2022-12-25T22:30:23.552Z,11.80
2022-12-25T22:32:53.072Z,11.90
2022-12-25T22:35:22.119Z,12.00
2022-12-25T22:37:50.578Z,12.00
2022-12-25T22:40:20.282Z,12.10
2022-12-25T22:42:48.662Z,12.10
2022-12-25T22:45:17.074Z,12.10
2022-12-25T22:47:46.722Z,12.00
2022-12-25T22:50:15.620Z,12.10
2022-12-25T22:52:45.657Z,12.20
2022-12-25T22:55:18.459Z,12.20
2022-12-25T22:57:46.829Z,12.30
2022-12-25T23:00:15.554Z,12.40
2022-12-25T23:02:43.924Z,12.40
2022-12-25T23:05:13.803Z,12.40
2022-12-25T23:07:42.033Z,12.50
2022-12-25T23:10:11.697Z,12.40
2022-12-25T23:12:57.228Z,12.40
2022-12-25T23:15:27.527Z,12.40
2022-12-25T23:18:13.719Z,12.40
2022-12-25T23:21:00.892Z,12.50
2022-12-25T23:23:46.463Z,12.50
2022-12-25T23:26:16.997Z,12.60
2022-12-25T23:29:02.631Z,12.50
2022-12-25T23:31:33.470Z,12.50
2022-12-25T23:34:01.778Z,12.50
2022-12-25T23:36:31.392Z,12.50
2022-12-25T23:39:06.645Z,12.50
2022-12-25T23:41:37.615Z,12.40
2022-12-25T23:44:06.291Z,12.40
2022-12-25T23:46:34.808Z,12.30
2022-12-25T23:49:03.478Z,12.30
2022-12-25T23:51:33.262Z,12.30
2022-12-25T23:54:01.495Z,12.30
2022-12-25T23:56:29.740Z,12.40
2022-12-25T23:58:57.969Z,12.30
